sensor_id;sensor_type;location;lat;lon;timestamp;temperature;humidity
22674;DHT22;11504;43.334;21.918;2023-04-25T00:00:17;15.6;100.0
22674;DHT22;11504;43.334;21.918;2023-04-25T00:04:54;15.6;100.0
22674;DHT22;11504;43.334;21.918;2023-04-25T00:09:32;15.6;100.0
22674;DHT22;11504;43.334;21.918;2023-04-25T00:14:08;15.6;100.0
22674;DHT22;11504;43.334;21.918;2023-04-25T00:18:45;15.6;100.0
22674;DHT22;11504;43.334;21.918;2023-04-25T00:23:21;15.7;100.0
22674;DHT22;11504;43.334;21.918;2023-04-25T00:27:58;15.7;100.0
22674;DHT22;11504;43.334;21.918;2023-04-25T00:32:35;15.8;100.0
22674;DHT22;11504;43.334;21.918;2023-04-25T00:37:12;15.8;100.0
22674;DHT22;11504;43.334;21.918;2023-04-25T00:41:50;15.8;100.0
22674;DHT22;11504;43.334;21.918;2023-04-25T00:46:31;15.8;100.0
22674;DHT22;11504;43.334;21.918;2023-04-25T00:51:16;15.8;100.0
22674;DHT22;11504;43.334;21.918;2023-04-25T00:56:01;15.7;100.0
22674;DHT22;11504;43.334;21.918;2023-04-25T01:00:41;15.7;100.0
22674;DHT22;11504;43.334;21.918;2023-04-25T01:05:24;15.7;100.0
22674;DHT22;11504;43.334;21.918;2023-04-25T01:10:02;15.7;100.0
22674;DHT22;11504;43.334;21.918;2023-04-25T01:14:44;15.7;100.0
22674;DHT22;11504;43.334;21.918;2023-04-25T01:19:24;15.7;100.0
22674;DHT22;11504;43.334;21.918;2023-04-25T01:24:02;15.8;100.0
22674;DHT22;11504;43.334;21.918;2023-04-25T01:28:42;15.8;100.0
22674;DHT22;11504;43.334;21.918;2023-04-25T01:33:22;15.8;100.0
22674;DHT22;11504;43.334;21.918;2023-04-25T01:38:00;15.8;100.0
22674;DHT22;11504;43.334;21.918;2023-04-25T01:42:41;15.8;100.0
22674;DHT22;11504;43.334;21.918;2023-04-25T01:47:21;15.8;100.0
22674;DHT22;11504;43.334;21.918;2023-04-25T01:51:57;15.7;100.0
22674;DHT22;11504;43.334;21.918;2023-04-25T01:56:37;15.7;100.0
22674;DHT22;11504;43.334;21.918;2023-04-25T02:01:15;15.7;100.0
22674;DHT22;11504;43.334;21.918;2023-04-25T02:05:52;15.8;100.0
22674;DHT22;11504;43.334;21.918;2023-04-25T02:10:29;15.8;100.0
22674;DHT22;11504;43.334;21.918;2023-04-25T02:15:07;15.8;100.0
22674;DHT22;11504;43.334;21.918;2023-04-25T02:19:45;15.8;100.0
22674;DHT22;11504;43.334;21.918;2023-04-25T02:24:23;15.8;100.0
22674;DHT22;11504;43.334;21.918;2023-04-25T02:29:00;15.8;100.0
22674;DHT22;11504;43.334;21.918;2023-04-25T02:33:36;15.8;100.0
22674;DHT22;11504;43.334;21.918;2023-04-25T02:38:13;15.8;100.0
22674;DHT22;11504;43.334;21.918;2023-04-25T02:42:49;15.8;100.0
22674;DHT22;11504;43.334;21.918;2023-04-25T02:47:26;15.8;100.0
22674;DHT22;11504;43.334;21.918;2023-04-25T02:52:03;15.7;100.0
22674;DHT22;11504;43.334;21.918;2023-04-25T02:56:40;15.7;100.0
22674;DHT22;11504;43.334;21.918;2023-04-25T03:01:16;15.7;100.0
22674;DHT22;11504;43.334;21.918;2023-04-25T03:05:53;15.6;100.0
22674;DHT22;11504;43.334;21.918;2023-04-25T03:10:30;15.6;100.0
22674;DHT22;11504;43.334;21.918;2023-04-25T03:15:07;15.5;100.0
22674;DHT22;11504;43.334;21.918;2023-04-25T03:19:46;15.5;100.0
22674;DHT22;11504;43.334;21.918;2023-04-25T03:24:23;15.4;100.0
22674;DHT22;11504;43.334;21.918;2023-04-25T03:29:00;15.4;100.0
22674;DHT22;11504;43.334;21.918;2023-04-25T03:33:38;15.3;100.0
22674;DHT22;11504;43.334;21.918;2023-04-25T03:38:15;15.3;100.0
22674;DHT22;11504;43.334;21.918;2023-04-25T03:42:53;15.3;100.0
22674;DHT22;11504;43.334;21.918;2023-04-25T03:47:30;15.3;100.0
22674;DHT22;11504;43.334;21.918;2023-04-25T03:52:08;15.3;100.0
22674;DHT22;11504;43.334;21.918;2023-04-25T03:56:44;15.3;100.0
22674;DHT22;11504;43.334;21.918;2023-04-25T04:01:21;15.3;100.0
22674;DHT22;11504;43.334;21.918;2023-04-25T04:05:57;15.3;100.0
22674;DHT22;11504;43.334;21.918;2023-04-25T04:10:34;15.3;100.0
22674;DHT22;11504;43.334;21.918;2023-04-25T04:15:11;15.3;100.0
22674;DHT22;11504;43.334;21.918;2023-04-25T04:19:48;15.3;100.0
22674;DHT22;11504;43.334;21.918;2023-04-25T04:24:24;15.3;100.0
22674;DHT22;11504;43.334;21.918;2023-04-25T04:29:01;15.3;100.0
22674;DHT22;11504;43.334;21.918;2023-04-25T04:33:37;15.3;100.0
22674;DHT22;11504;43.334;21.918;2023-04-25T04:38:14;15.3;100.0
22674;DHT22;11504;43.334;21.918;2023-04-25T04:42:51;15.2;100.0
22674;DHT22;11504;43.334;21.918;2023-04-25T04:47:27;15.2;100.0
22674;DHT22;11504;43.334;21.918;2023-04-25T04:52:04;15.2;100.0
22674;DHT22;11504;43.334;21.918;2023-04-25T04:56:40;15.2;100.0
22674;DHT22;11504;43.334;21.918;2023-04-25T05:01:17;15.2;100.0
22674;DHT22;11504;43.334;21.918;2023-04-25T05:05:54;15.2;100.0
22674;DHT22;11504;43.334;21.918;2023-04-25T05:10:31;15.2;100.0
22674;DHT22;11504;43.334;21.918;2023-04-25T05:15:09;15.1;100.0
22674;DHT22;11504;43.334;21.918;2023-04-25T05:19:46;15.1;100.0
22674;DHT22;11504;43.334;21.918;2023-04-25T05:24:23;15.2;100.0
22674;DHT22;11504;43.334;21.918;2023-04-25T05:29:00;15.2;100.0
22674;DHT22;11504;43.334;21.918;2023-04-25T05:33:36;15.2;100.0
22674;DHT22;11504;43.334;21.918;2023-04-25T05:38:13;15.2;100.0
22674;DHT22;11504;43.334;21.918;2023-04-25T05:42:50;15.2;100.0
22674;DHT22;11504;43.334;21.918;2023-04-25T05:47:26;15.2;100.0
22674;DHT22;11504;43.334;21.918;2023-04-25T05:52:04;15.3;100.0
22674;DHT22;11504;43.334;21.918;2023-04-25T05:56:41;15.3;100.0
22674;DHT22;11504;43.334;21.918;2023-04-25T06:01:18;15.3;100.0
22674;DHT22;11504;43.334;21.918;2023-04-25T06:05:57;15.6;100.0
22674;DHT22;11504;43.334;21.918;2023-04-25T06:10:34;15.6;100.0
22674;DHT22;11504;43.334;21.918;2023-04-25T06:15:13;15.9;100.0
22674;DHT22;11504;43.334;21.918;2023-04-25T06:19:50;15.9;100.0
22674;DHT22;11504;43.334;21.918;2023-04-25T06:24:27;16.6;100.0
22674;DHT22;11504;43.334;21.918;2023-04-25T06:29:05;16.6;100.0
22674;DHT22;11504;43.334;21.918;2023-04-25T06:33:42;17.3;100.0
22674;DHT22;11504;43.334;21.918;2023-04-25T06:38:19;17.3;100.0
22674;DHT22;11504;43.334;21.918;2023-04-25T06:42:55;17.4;100.0
22674;DHT22;11504;43.334;21.918;2023-04-25T06:47:32;17.4;100.0
22674;DHT22;11504;43.334;21.918;2023-04-25T06:52:08;17.5;100.0
22674;DHT22;11504;43.334;21.918;2023-04-25T06:56:45;17.5;100.0
22674;DHT22;11504;43.334;21.918;2023-04-25T07:01:22;17.5;100.0
22674;DHT22;11504;43.334;21.918;2023-04-25T07:05:58;19.2;100.0
22674;DHT22;11504;43.334;21.918;2023-04-25T07:10:35;19.2;100.0
22674;DHT22;11504;43.334;21.918;2023-04-25T07:15:11;20.9;100.0
22674;DHT22;11504;43.334;21.918;2023-04-25T07:19:48;20.9;100.0
22674;DHT22;11504;43.334;21.918;2023-04-25T07:24:25;20.8;100.0
22674;DHT22;11504;43.334;21.918;2023-04-25T07:29:01;20.8;100.0
22674;DHT22;11504;43.334;21.918;2023-04-25T07:33:38;20.8;100.0
22674;DHT22;11504;43.334;21.918;2023-04-25T07:38:14;20.8;100.0
22674;DHT22;11504;43.334;21.918;2023-04-25T07:42:51;20.8;100.0
22674;DHT22;11504;43.334;21.918;2023-04-25T07:47:28;20.8;100.0
22674;DHT22;11504;43.334;21.918;2023-04-25T07:52:05;20.7;100.0
22674;DHT22;11504;43.334;21.918;2023-04-25T07:56:42;20.7;100.0
22674;DHT22;11504;43.334;21.918;2023-04-25T08:01:18;20.7;100.0
22674;DHT22;11504;43.334;21.918;2023-04-25T08:05:55;21.4;100.0
22674;DHT22;11504;43.334;21.918;2023-04-25T08:10:31;21.4;100.0
22674;DHT22;11504;43.334;21.918;2023-04-25T08:15:09;22.2;100.0
22674;DHT22;11504;43.334;21.918;2023-04-25T08:19:47;22.2;100.0
22674;DHT22;11504;43.334;21.918;2023-04-25T08:24:24;22.2;100.0
22674;DHT22;11504;43.334;21.918;2023-04-25T08:29:01;22.2;100.0
22674;DHT22;11504;43.334;21.918;2023-04-25T08:33:38;22.2;100.0
22674;DHT22;11504;43.334;21.918;2023-04-25T08:38:15;22.2;100.0
22674;DHT22;11504;43.334;21.918;2023-04-25T08:42:54;21.2;100.0
22674;DHT22;11504;43.334;21.918;2023-04-25T08:47:39;21.2;100.0
22674;DHT22;11504;43.334;21.918;2023-04-25T08:52:23;20.3;100.0
22674;DHT22;11504;43.334;21.918;2023-04-25T08:57:21;20.3;100.0
22674;DHT22;11504;43.334;21.918;2023-04-25T09:02:03;20.3;100.0
22674;DHT22;11504;43.334;21.918;2023-04-25T09:06:41;19.4;100.0
22674;DHT22;11504;43.334;21.918;2023-04-25T09:11:18;19.4;100.0
22674;DHT22;11504;43.334;21.918;2023-04-25T09:15:57;18.5;100.0
22674;DHT22;11504;43.334;21.918;2023-04-25T09:20:42;18.5;100.0
22674;DHT22;11504;43.334;21.918;2023-04-25T09:25:20;18.5;100.0
22674;DHT22;11504;43.334;21.918;2023-04-25T09:29:59;18.5;100.0
22674;DHT22;11504;43.334;21.918;2023-04-25T09:34:39;18.5;100.0
22674;DHT22;11504;43.334;21.918;2023-04-25T09:39:21;18.5;100.0
22674;DHT22;11504;43.334;21.918;2023-04-25T09:43:58;18.4;100.0
22674;DHT22;11504;43.334;21.918;2023-04-25T09:48:35;18.4;100.0
22674;DHT22;11504;43.334;21.918;2023-04-25T09:53:12;18.2;100.0
22674;DHT22;11504;43.334;21.918;2023-04-25T09:57:56;18.2;100.0
22674;DHT22;11504;43.334;21.918;2023-04-25T10:02:47;17.2;100.0
22674;DHT22;11504;43.334;21.918;2023-04-25T10:07:31;17.2;100.0
22674;DHT22;11504;43.334;21.918;2023-04-25T10:12:14;16.2;100.0
22674;DHT22;11504;43.334;21.918;2023-04-25T10:16:54;16.2;100.0
22674;DHT22;11504;43.334;21.918;2023-04-25T10:21:44;16.2;100.0
22674;DHT22;11504;43.334;21.918;2023-04-25T10:26:40;16.0;100.0
22674;DHT22;11504;43.334;21.918;2023-04-25T10:31:17;16.0;100.0
22674;DHT22;11504;43.334;21.918;2023-04-25T10:35:58;15.7;100.0
22674;DHT22;11504;43.334;21.918;2023-04-25T10:41:03;15.7;100.0
22674;DHT22;11504;43.334;21.918;2023-04-25T10:45:51;16.6;100.0
22674;DHT22;11504;43.334;21.918;2023-04-25T10:50:37;16.6;100.0
22674;DHT22;11504;43.334;21.918;2023-04-25T10:55:14;17.6;100.0
22674;DHT22;11504;43.334;21.918;2023-04-25T10:59:51;17.6;100.0
22674;DHT22;11504;43.334;21.918;2023-04-25T11:04:31;18.2;100.0
22674;DHT22;11504;43.334;21.918;2023-04-25T11:09:12;18.2;100.0
22674;DHT22;11504;43.334;21.918;2023-04-25T11:13:50;18.9;100.0
22674;DHT22;11504;43.334;21.918;2023-04-25T11:18:26;18.9;100.0
22674;DHT22;11504;43.334;21.918;2023-04-25T11:23:04;18.4;100.0
22674;DHT22;11504;43.334;21.918;2023-04-25T11:27:51;18.4;100.0
22674;DHT22;11504;43.334;21.918;2023-04-25T11:32:35;17.9;100.0
22674;DHT22;11504;43.334;21.918;2023-04-25T11:37:12;17.9;100.0
22674;DHT22;11504;43.334;21.918;2023-04-25T11:41:51;17.9;100.0
22674;DHT22;11504;43.334;21.918;2023-04-25T11:46:34;18.2;100.0
22674;DHT22;11504;43.334;21.918;2023-04-25T11:51:11;18.2;100.0
22674;DHT22;11504;43.334;21.918;2023-04-25T11:55:48;18.5;100.0
22674;DHT22;11504;43.334;21.918;2023-04-25T12:00:26;18.5;100.0
22674;DHT22;11504;43.334;21.918;2023-04-25T12:05:07;18.4;100.0
22674;DHT22;11504;43.334;21.918;2023-04-25T12:09:52;18.4;100.0
22674;DHT22;11504;43.334;21.918;2023-04-25T12:14:32;18.2;100.0
22674;DHT22;11504;43.334;21.918;2023-04-25T12:19:14;18.2;100.0
22674;DHT22;11504;43.334;21.918;2023-04-25T12:23:54;18.2;100.0
22674;DHT22;11504;43.334;21.918;2023-04-25T12:28:32;18.2;100.0
22674;DHT22;11504;43.334;21.918;2023-04-25T12:33:09;18.3;100.0
22674;DHT22;11504;43.334;21.918;2023-04-25T12:37:45;18.3;100.0
22674;DHT22;11504;43.334;21.918;2023-04-25T12:42:22;18.6;100.0
22674;DHT22;11504;43.334;21.918;2023-04-25T12:46:58;18.6;100.0
22674;DHT22;11504;43.334;21.918;2023-04-25T12:51:36;18.6;100.0
22674;DHT22;11504;43.334;21.918;2023-04-25T12:56:13;18.8;100.0
22674;DHT22;11504;43.334;21.918;2023-04-25T13:00:50;18.8;100.0
22674;DHT22;11504;43.334;21.918;2023-04-25T13:05:26;19.2;100.0
22674;DHT22;11504;43.334;21.918;2023-04-25T13:10:05;19.2;100.0
22674;DHT22;11504;43.334;21.918;2023-04-25T13:14:44;19.6;100.0
22674;DHT22;11504;43.334;21.918;2023-04-25T13:19:20;19.6;100.0
22674;DHT22;11504;43.334;21.918;2023-04-25T13:23:57;19.6;100.0
22674;DHT22;11504;43.334;21.918;2023-04-25T13:28:34;19.6;100.0
22674;DHT22;11504;43.334;21.918;2023-04-25T13:33:10;19.5;100.0
22674;DHT22;11504;43.334;21.918;2023-04-25T13:37:47;19.5;100.0
22674;DHT22;11504;43.334;21.918;2023-04-25T13:42:24;19.0;100.0
22674;DHT22;11504;43.334;21.918;2023-04-25T13:47:01;19.0;100.0
22674;DHT22;11504;43.334;21.918;2023-04-25T13:51:38;19.0;100.0
22674;DHT22;11504;43.334;21.918;2023-04-25T13:56:16;18.5;100.0
22674;DHT22;11504;43.334;21.918;2023-04-25T14:00:54;18.5;100.0
22674;DHT22;11504;43.334;21.918;2023-04-25T14:05:30;18.1;100.0
22674;DHT22;11504;43.334;21.918;2023-04-25T14:10:09;18.1;100.0
22674;DHT22;11504;43.334;21.918;2023-04-25T14:14:46;17.7;100.0
22674;DHT22;11504;43.334;21.918;2023-04-25T14:19:23;17.7;100.0
22674;DHT22;11504;43.334;21.918;2023-04-25T14:24:01;17.4;100.0
22674;DHT22;11504;43.334;21.918;2023-04-25T14:28:40;17.4;100.0
22674;DHT22;11504;43.334;21.918;2023-04-25T14:33:17;17.1;100.0
22674;DHT22;11504;43.334;21.918;2023-04-25T14:37:54;17.1;100.0
22674;DHT22;11504;43.334;21.918;2023-04-25T14:42:30;16.9;100.0
22674;DHT22;11504;43.334;21.918;2023-04-25T14:47:07;16.9;100.0
22674;DHT22;11504;43.334;21.918;2023-04-25T14:51:44;16.9;100.0
22674;DHT22;11504;43.334;21.918;2023-04-25T14:56:21;16.7;100.0
22674;DHT22;11504;43.334;21.918;2023-04-25T15:00:58;16.7;100.0
22674;DHT22;11504;43.334;21.918;2023-04-25T15:05:36;16.5;100.0
22674;DHT22;11504;43.334;21.918;2023-04-25T15:10:13;16.5;100.0
22674;DHT22;11504;43.334;21.918;2023-04-25T15:14:49;16.4;100.0
22674;DHT22;11504;43.334;21.918;2023-04-25T15:19:26;16.4;100.0
22674;DHT22;11504;43.334;21.918;2023-04-25T15:24:04;16.2;100.0
22674;DHT22;11504;43.334;21.918;2023-04-25T15:28:42;16.2;100.0
22674;DHT22;11504;43.334;21.918;2023-04-25T15:33:19;15.9;100.0
22674;DHT22;11504;43.334;21.918;2023-04-25T15:37:55;15.9;100.0
22674;DHT22;11504;43.334;21.918;2023-04-25T15:42:32;15.9;100.0
22674;DHT22;11504;43.334;21.918;2023-04-25T15:47:08;15.9;100.0
22674;DHT22;11504;43.334;21.918;2023-04-25T15:51:45;15.9;100.0
22674;DHT22;11504;43.334;21.918;2023-04-25T15:56:22;15.9;100.0
22674;DHT22;11504;43.334;21.918;2023-04-25T16:00:58;15.9;100.0
22674;DHT22;11504;43.334;21.918;2023-04-25T16:05:35;15.8;100.0
22674;DHT22;11504;43.334;21.918;2023-04-25T16:10:13;15.8;100.0
22674;DHT22;11504;43.334;21.918;2023-04-25T16:14:53;15.7;100.0
22674;DHT22;11504;43.334;21.918;2023-04-25T16:19:30;15.7;100.0
22674;DHT22;11504;43.334;21.918;2023-04-25T16:24:07;15.6;100.0
22674;DHT22;11504;43.334;21.918;2023-04-25T16:28:45;15.6;100.0
22674;DHT22;11504;43.334;21.918;2023-04-25T16:33:22;15.5;100.0
22674;DHT22;11504;43.334;21.918;2023-04-25T16:37:59;15.5;100.0
22674;DHT22;11504;43.334;21.918;2023-04-25T16:42:36;15.4;100.0
22674;DHT22;11504;43.334;21.918;2023-04-25T16:47:14;15.4;100.0
22674;DHT22;11504;43.334;21.918;2023-04-25T16:51:51;15.4;100.0
22674;DHT22;11504;43.334;21.918;2023-04-25T16:56:28;15.4;100.0
22674;DHT22;11504;43.334;21.918;2023-04-25T17:01:05;15.4;100.0
22674;DHT22;11504;43.334;21.918;2023-04-25T17:05:43;15.2;100.0
22674;DHT22;11504;43.334;21.918;2023-04-25T17:10:20;15.2;100.0
22674;DHT22;11504;43.334;21.918;2023-04-25T17:14:56;15.0;100.0
22674;DHT22;11504;43.334;21.918;2023-04-25T17:19:33;15.0;100.0
22674;DHT22;11504;43.334;21.918;2023-04-25T17:24:10;15.0;100.0
22674;DHT22;11504;43.334;21.918;2023-04-25T17:28:46;15.0;100.0
22674;DHT22;11504;43.334;21.918;2023-04-25T17:33:23;15.0;100.0
22674;DHT22;11504;43.334;21.918;2023-04-25T17:37:59;15.0;100.0
22674;DHT22;11504;43.334;21.918;2023-04-25T17:42:36;15.0;100.0
22674;DHT22;11504;43.334;21.918;2023-04-25T17:47:16;15.0;100.0
22674;DHT22;11504;43.334;21.918;2023-04-25T17:51:52;15.0;100.0
22674;DHT22;11504;43.334;21.918;2023-04-25T17:56:29;15.0;100.0
22674;DHT22;11504;43.334;21.918;2023-04-25T18:01:05;15.0;100.0
22674;DHT22;11504;43.334;21.918;2023-04-25T18:05:42;15.0;100.0
22674;DHT22;11504;43.334;21.918;2023-04-25T18:10:19;15.0;100.0
22674;DHT22;11504;43.334;21.918;2023-04-25T18:14:56;15.0;100.0
22674;DHT22;11504;43.334;21.918;2023-04-25T18:19:33;15.0;100.0
22674;DHT22;11504;43.334;21.918;2023-04-25T18:24:09;15.0;100.0
22674;DHT22;11504;43.334;21.918;2023-04-25T18:28:47;15.0;100.0
22674;DHT22;11504;43.334;21.918;2023-04-25T18:33:24;14.9;100.0
22674;DHT22;11504;43.334;21.918;2023-04-25T18:38:00;14.9;100.0
22674;DHT22;11504;43.334;21.918;2023-04-25T18:42:37;14.8;100.0
22674;DHT22;11504;43.334;21.918;2023-04-25T18:47:13;14.8;100.0
22674;DHT22;11504;43.334;21.918;2023-04-25T18:51:51;14.8;100.0
22674;DHT22;11504;43.334;21.918;2023-04-25T18:56:27;14.6;100.0
22674;DHT22;11504;43.334;21.918;2023-04-25T19:01:04;14.6;100.0
22674;DHT22;11504;43.334;21.918;2023-04-25T19:05:42;14.4;100.0
22674;DHT22;11504;43.334;21.918;2023-04-25T19:10:18;14.4;100.0
22674;DHT22;11504;43.334;21.918;2023-04-25T19:14:55;14.3;100.0
22674;DHT22;11504;43.334;21.918;2023-04-25T19:19:32;14.3;100.0
22674;DHT22;11504;43.334;21.918;2023-04-25T19:24:09;14.2;100.0
22674;DHT22;11504;43.334;21.918;2023-04-25T19:28:46;14.2;100.0
22674;DHT22;11504;43.334;21.918;2023-04-25T19:33:44;14.1;100.0
22674;DHT22;11504;43.334;21.918;2023-04-25T19:38:21;14.1;100.0
22674;DHT22;11504;43.334;21.918;2023-04-25T19:42:58;14.0;100.0
22674;DHT22;11504;43.334;21.918;2023-04-25T19:47:35;14.0;100.0
22674;DHT22;11504;43.334;21.918;2023-04-25T19:52:13;14.0;100.0
22674;DHT22;11504;43.334;21.918;2023-04-25T19:56:50;13.8;100.0
22674;DHT22;11504;43.334;21.918;2023-04-25T20:01:26;13.8;100.0
22674;DHT22;11504;43.334;21.918;2023-04-25T20:06:03;13.6;100.0
22674;DHT22;11504;43.334;21.918;2023-04-25T20:10:40;13.6;100.0
22674;DHT22;11504;43.334;21.918;2023-04-25T20:15:17;13.5;100.0
22674;DHT22;11504;43.334;21.918;2023-04-25T20:19:53;13.5;100.0
22674;DHT22;11504;43.334;21.918;2023-04-25T20:24:30;13.4;100.0
22674;DHT22;11504;43.334;21.918;2023-04-25T20:29:06;13.4;100.0
22674;DHT22;11504;43.334;21.918;2023-04-25T20:33:44;13.4;100.0
22674;DHT22;11504;43.334;21.918;2023-04-25T20:38:21;13.4;100.0
22674;DHT22;11504;43.334;21.918;2023-04-25T20:42:58;13.2;100.0
22674;DHT22;11504;43.334;21.918;2023-04-25T20:47:35;13.2;100.0
22674;DHT22;11504;43.334;21.918;2023-04-25T20:52:11;13.2;100.0
22674;DHT22;11504;43.334;21.918;2023-04-25T20:56:48;13.1;100.0
22674;DHT22;11504;43.334;21.918;2023-04-25T21:01:25;13.1;100.0
22674;DHT22;11504;43.334;21.918;2023-04-25T21:06:02;12.8;100.0
22674;DHT22;11504;43.334;21.918;2023-04-25T21:10:40;12.8;100.0
22674;DHT22;11504;43.334;21.918;2023-04-25T21:15:17;12.6;100.0
22674;DHT22;11504;43.334;21.918;2023-04-25T21:19:54;12.6;100.0
22674;DHT22;11504;43.334;21.918;2023-04-25T21:24:30;12.6;100.0
22674;DHT22;11504;43.334;21.918;2023-04-25T21:29:07;12.6;100.0
22674;DHT22;11504;43.334;21.918;2023-04-25T21:33:44;12.5;100.0
22674;DHT22;11504;43.334;21.918;2023-04-25T21:38:20;12.5;100.0
22674;DHT22;11504;43.334;21.918;2023-04-25T21:42:57;12.6;100.0
22674;DHT22;11504;43.334;21.918;2023-04-25T21:47:34;12.6;100.0
22674;DHT22;11504;43.334;21.918;2023-04-25T21:52:11;12.6;100.0
22674;DHT22;11504;43.334;21.918;2023-04-25T21:56:48;12.6;100.0
22674;DHT22;11504;43.334;21.918;2023-04-25T22:01:25;12.6;100.0
22674;DHT22;11504;43.334;21.918;2023-04-25T22:06:03;12.4;100.0
22674;DHT22;11504;43.334;21.918;2023-04-25T22:10:41;12.4;100.0
22674;DHT22;11504;43.334;21.918;2023-04-25T22:15:19;12.3;100.0
22674;DHT22;11504;43.334;21.918;2023-04-25T22:19:58;12.3;100.0
22674;DHT22;11504;43.334;21.918;2023-04-25T22:24:36;12.1;100.0
22674;DHT22;11504;43.334;21.918;2023-04-25T22:29:13;12.1;100.0
22674;DHT22;11504;43.334;21.918;2023-04-25T22:33:51;11.9;100.0
22674;DHT22;11504;43.334;21.918;2023-04-25T22:38:27;11.9;100.0
22674;DHT22;11504;43.334;21.918;2023-04-25T22:43:04;11.9;100.0
22674;DHT22;11504;43.334;21.918;2023-04-25T22:47:40;11.9;100.0
22674;DHT22;11504;43.334;21.918;2023-04-25T22:52:16;11.9;100.0
22674;DHT22;11504;43.334;21.918;2023-04-25T22:56:53;11.8;100.0
22674;DHT22;11504;43.334;21.918;2023-04-25T23:01:29;11.8;100.0
22674;DHT22;11504;43.334;21.918;2023-04-25T23:06:06;11.8;100.0
22674;DHT22;11504;43.334;21.918;2023-04-25T23:10:42;11.8;100.0
22674;DHT22;11504;43.334;21.918;2023-04-25T23:15:19;11.7;100.0
22674;DHT22;11504;43.334;21.918;2023-04-25T23:19:56;11.7;100.0
22674;DHT22;11504;43.334;21.918;2023-04-25T23:24:35;11.6;100.0
22674;DHT22;11504;43.334;21.918;2023-04-25T23:29:12;11.6;100.0
22674;DHT22;11504;43.334;21.918;2023-04-25T23:33:48;11.6;100.0
22674;DHT22;11504;43.334;21.918;2023-04-25T23:38:25;11.6;100.0
22674;DHT22;11504;43.334;21.918;2023-04-25T23:43:02;11.4;100.0
22674;DHT22;11504;43.334;21.918;2023-04-25T23:47:38;11.4;100.0
22674;DHT22;11504;43.334;21.918;2023-04-25T23:52:15;11.4;100.0
22674;DHT22;11504;43.334;21.918;2023-04-25T23:56:51;11.2;100.0
